sensor_id;sensor_type;location;lat;lon;timestamp;pressure;altitude;pressure_sealevel;temperature;humidity
10014;BME280;45684;48.358;10.746;2022-11-20T00:01:04;95648.03;;;5.47;100.00
10014;BME280;45684;48.358;10.746;2022-11-20T00:03:32;95649.63;;;5.48;100.00
10014;BME280;45684;48.358;10.746;2022-11-20T00:06:00;95643.88;;;5.41;100.00
10014;BME280;45684;48.358;10.746;2022-11-20T00:08:28;95654.28;;;5.43;100.00
10014;BME280;45684;48.358;10.746;2022-11-20T00:10:55;95647.25;;;5.47;100.00
10014;BME280;45684;48.358;10.746;2022-11-20T00:13:25;95657.19;;;5.46;100.00
10014;BME280;45684;48.358;10.746;2022-11-20T00:15:57;95652.31;;;5.48;100.00
10014;BME280;45684;48.358;10.746;2022-11-20T00:18:25;95654.69;;;5.50;100.00
10014;BME280;45684;48.358;10.746;2022-11-20T00:20:52;95660.66;;;5.47;100.00
10014;BME280;45684;48.358;10.746;2022-11-20T00:23:20;95654.00;;;5.44;100.00
10014;BME280;45684;48.358;10.746;2022-11-20T00:25:48;95656.19;;;5.42;100.00
10014;BME280;45684;48.358;10.746;2022-11-20T00:28:16;95663.22;;;5.38;100.00
10014;BME280;45684;48.358;10.746;2022-11-20T00:30:45;95667.50;;;5.39;100.00
10014;BME280;45684;48.358;10.746;2022-11-20T00:33:12;95666.00;;;5.33;100.00
10014;BME280;45684;48.358;10.746;2022-11-20T00:35:40;95670.84;;;5.31;100.00
10014;BME280;45684;48.358;10.746;2022-11-20T00:38:08;95669.25;;;5.30;100.00
10014;BME280;45684;48.358;10.746;2022-11-20T00:40:35;95675.94;;;5.32;100.00
10014;BME280;45684;48.358;10.746;2022-11-20T00:43:03;95673.81;;;5.29;100.00
10014;BME280;45684;48.358;10.746;2022-11-20T00:45:31;95672.03;;;5.25;100.00
10014;BME280;45684;48.358;10.746;2022-11-20T00:48:00;95665.38;;;5.22;100.00
10014;BME280;45684;48.358;10.746;2022-11-20T00:50:28;95673.13;;;5.24;100.00
10014;BME280;45684;48.358;10.746;2022-11-20T00:52:56;95670.13;;;5.25;100.00
10014;BME280;45684;48.358;10.746;2022-11-20T00:55:24;95675.00;;;5.23;100.00
10014;BME280;45684;48.358;10.746;2022-11-20T00:57:51;95675.59;;;5.20;100.00
10014;BME280;45684;48.358;10.746;2022-11-20T01:00:19;95680.16;;;5.20;100.00
10014;BME280;45684;48.358;10.746;2022-11-20T01:02:47;95680.47;;;5.18;100.00
10014;BME280;45684;48.358;10.746;2022-11-20T01:05:16;95673.78;;;5.16;100.00
10014;BME280;45684;48.358;10.746;2022-11-20T01:07:44;95684.41;;;5.21;100.00
10014;BME280;45684;48.358;10.746;2022-11-20T01:10:11;95684.72;;;5.19;100.00
10014;BME280;45684;48.358;10.746;2022-11-20T01:12:39;95691.44;;;5.17;100.00
10014;BME280;45684;48.358;10.746;2022-11-20T01:15:08;95698.44;;;5.18;100.00
10014;BME280;45684;48.358;10.746;2022-11-20T01:17:35;95692.31;;;5.12;100.00
10014;BME280;45684;48.358;10.746;2022-11-20T01:20:04;95694.59;;;5.05;100.00
10014;BME280;45684;48.358;10.746;2022-11-20T01:22:33;95698.16;;;5.00;100.00
10014;BME280;45684;48.358;10.746;2022-11-20T01:25:01;95692.28;;;4.98;100.00
10014;BME280;45684;48.358;10.746;2022-11-20T01:27:28;95697.63;;;4.98;100.00
10014;BME280;45684;48.358;10.746;2022-11-20T01:29:56;95693.38;;;4.97;100.00
10014;BME280;45684;48.358;10.746;2022-11-20T01:32:27;95694.47;;;4.96;100.00
10014;BME280;45684;48.358;10.746;2022-11-20T01:34:54;95692.66;;;4.92;100.00
10014;BME280;45684;48.358;10.746;2022-11-20T01:37:22;95697.72;;;4.93;100.00
10014;BME280;45684;48.358;10.746;2022-11-20T01:39:51;95706.19;;;5.00;100.00
10014;BME280;45684;48.358;10.746;2022-11-20T01:42:19;95706.75;;;4.97;100.00
10014;BME280;45684;48.358;10.746;2022-11-20T01:48:05;95713.78;;;4.93;100.00
10014;BME280;45684;48.358;10.746;2022-11-20T01:50:33;95712.22;;;4.92;100.00
10014;BME280;45684;48.358;10.746;2022-11-20T01:53:03;95717.78;;;4.96;100.00
10014;BME280;45684;48.358;10.746;2022-11-20T01:55:36;95710.53;;;4.96;100.00
10014;BME280;45684;48.358;10.746;2022-11-20T01:58:06;95707.28;;;4.99;100.00
10014;BME280;45684;48.358;10.746;2022-11-20T02:00:34;95711.63;;;4.95;100.00
10014;BME280;45684;48.358;10.746;2022-11-20T02:03:05;95715.03;;;5.01;100.00
10014;BME280;45684;48.358;10.746;2022-11-20T02:05:37;95713.13;;;5.01;100.00
10014;BME280;45684;48.358;10.746;2022-11-20T02:08:06;95703.50;;;5.00;100.00
10014;BME280;45684;48.358;10.746;2022-11-20T02:10:35;95712.69;;;4.94;100.00
10014;BME280;45684;48.358;10.746;2022-11-20T02:13:04;95713.53;;;4.95;100.00
10014;BME280;45684;48.358;10.746;2022-11-20T02:15:49;95707.84;;;4.96;100.00
10014;BME280;45684;48.358;10.746;2022-11-20T02:18:18;95704.66;;;4.94;100.00
10014;BME280;45684;48.358;10.746;2022-11-20T02:20:49;95713.00;;;4.93;100.00
10014;BME280;45684;48.358;10.746;2022-11-20T02:23:23;95703.06;;;4.93;100.00
10014;BME280;45684;48.358;10.746;2022-11-20T02:25:57;95706.44;;;4.85;100.00
10014;BME280;45684;48.358;10.746;2022-11-20T02:28:26;95710.97;;;4.84;100.00
10014;BME280;45684;48.358;10.746;2022-11-20T02:30:54;95702.44;;;4.82;100.00
10014;BME280;45684;48.358;10.746;2022-11-20T02:33:22;95701.13;;;4.80;100.00
10014;BME280;45684;48.358;10.746;2022-11-20T02:35:49;95708.16;;;4.76;100.00
10014;BME280;45684;48.358;10.746;2022-11-20T02:38:17;95701.19;;;4.75;100.00
10014;BME280;45684;48.358;10.746;2022-11-20T02:40:45;95717.88;;;4.72;100.00
10014;BME280;45684;48.358;10.746;2022-11-20T02:43:21;95710.34;;;4.74;100.00
10014;BME280;45684;48.358;10.746;2022-11-20T02:45:49;95702.38;;;4.69;100.00
10014;BME280;45684;48.358;10.746;2022-11-20T02:48:17;95702.06;;;4.70;100.00
10014;BME280;45684;48.358;10.746;2022-11-20T02:50:44;95704.56;;;4.67;100.00
10014;BME280;45684;48.358;10.746;2022-11-20T02:53:12;95714.91;;;4.73;100.00
10014;BME280;45684;48.358;10.746;2022-11-20T02:55:40;95702.94;;;4.66;100.00
10014;BME280;45684;48.358;10.746;2022-11-20T02:58:08;95702.16;;;4.65;100.00
10014;BME280;45684;48.358;10.746;2022-11-20T03:00:37;95706.13;;;4.68;100.00
10014;BME280;45684;48.358;10.746;2022-11-20T03:03:05;95695.84;;;4.75;100.00
10014;BME280;45684;48.358;10.746;2022-11-20T03:05:33;95706.13;;;4.68;100.00
10014;BME280;45684;48.358;10.746;2022-11-20T03:08:01;95693.25;;;4.70;100.00
10014;BME280;45684;48.358;10.746;2022-11-20T03:10:28;95693.25;;;4.70;100.00
10014;BME280;45684;48.358;10.746;2022-11-20T03:12:56;95693.47;;;4.73;100.00
10014;BME280;45684;48.358;10.746;2022-11-20T03:15:24;95696.38;;;4.77;100.00
10014;BME280;45684;48.358;10.746;2022-11-20T03:17:54;95695.56;;;4.76;100.00
10014;BME280;45684;48.358;10.746;2022-11-20T03:20:23;95697.47;;;4.76;100.00
10014;BME280;45684;48.358;10.746;2022-11-20T03:22:53;95692.91;;;4.76;100.00
10014;BME280;45684;48.358;10.746;2022-11-20T03:25:21;95690.22;;;4.76;100.00
10014;BME280;45684;48.358;10.746;2022-11-20T03:27:49;95688.81;;;4.79;100.00
10014;BME280;45684;48.358;10.746;2022-11-20T03:30:17;95698.44;;;4.80;100.00
10014;BME280;45684;48.358;10.746;2022-11-20T03:32:45;95691.50;;;4.79;100.00
10014;BME280;45684;48.358;10.746;2022-11-20T03:35:14;95694.97;;;4.79;100.00
10014;BME280;45684;48.358;10.746;2022-11-20T03:37:42;95695.84;;;4.75;100.00
10014;BME280;45684;48.358;10.746;2022-11-20T03:40:12;95695.28;;;4.78;100.00
10014;BME280;45684;48.358;10.746;2022-11-20T03:42:40;95697.94;;;4.78;100.00
10014;BME280;45684;48.358;10.746;2022-11-20T03:45:14;95697.47;;;4.76;100.00
10014;BME280;45684;48.358;10.746;2022-11-20T03:47:43;95697.72;;;4.74;100.00
10014;BME280;45684;48.358;10.746;2022-11-20T03:50:13;95696.38;;;4.77;100.00
10014;BME280;45684;48.358;10.746;2022-11-20T03:52:41;95688.91;;;4.74;100.00
10014;BME280;45684;48.358;10.746;2022-11-20T03:55:09;95691.09;;;4.72;100.00
10014;BME280;45684;48.358;10.746;2022-11-20T03:57:37;95692.69;;;4.73;100.00
10014;BME280;45684;48.358;10.746;2022-11-20T04:00:06;95692.91;;;4.76;100.00
10014;BME280;45684;48.358;10.746;2022-11-20T04:02:34;95695.94;;;4.70;100.00
10014;BME280;45684;48.358;10.746;2022-11-20T04:05:02;95689.47;;;4.71;100.00
10014;BME280;45684;48.358;10.746;2022-11-20T04:07:33;95699.19;;;4.67;100.00
10014;BME280;45684;48.358;10.746;2022-11-20T04:10:02;95700.56;;;4.64;100.00
10014;BME280;45684;48.358;10.746;2022-11-20T04:12:32;95706.63;;;4.70;100.00
10014;BME280;45684;48.358;10.746;2022-11-20T04:14:59;95705.53;;;4.71;100.00
10014;BME280;45684;48.358;10.746;2022-11-20T04:17:27;95700.72;;;4.73;100.00
10014;BME280;45684;48.358;10.746;2022-11-20T04:19:55;95693.03;;;4.66;100.00
10014;BME280;45684;48.358;10.746;2022-11-20T04:22:23;95701.94;;;4.61;100.00
10014;BME280;45684;48.358;10.746;2022-11-20T04:24:52;95699.78;;;4.64;100.00
10014;BME280;45684;48.358;10.746;2022-11-20T04:27:20;95698.19;;;4.63;100.00
10014;BME280;45684;48.358;10.746;2022-11-20T04:29:48;95688.25;;;4.63;100.00
10014;BME280;45684;48.358;10.746;2022-11-20T04:32:16;95689.84;;;4.64;100.00
10014;BME280;45684;48.358;10.746;2022-11-20T04:34:43;95690.66;;;4.65;100.00
10014;BME280;45684;48.358;10.746;2022-11-20T04:37:11;95689.84;;;4.64;100.00
10014;BME280;45684;48.358;10.746;2022-11-20T04:39:39;95694.41;;;4.64;100.00
10014;BME280;45684;48.358;10.746;2022-11-20T04:42:09;95686.78;;;4.71;100.00
10014;BME280;45684;48.358;10.746;2022-11-20T04:44:54;95688.50;;;4.67;100.00
10014;BME280;45684;48.358;10.746;2022-11-20T04:47:23;95681.16;;;4.72;100.00
10014;BME280;45684;48.358;10.746;2022-11-20T04:49:50;95680.88;;;4.74;100.00
10014;BME280;45684;48.358;10.746;2022-11-20T04:52:19;95687.81;;;4.75;100.00
10014;BME280;45684;48.358;10.746;2022-11-20T04:54:46;95692.38;;;4.74;100.00
10014;BME280;45684;48.358;10.746;2022-11-20T04:57:15;95690.00;;;4.73;100.00
10014;BME280;45684;48.358;10.746;2022-11-20T04:59:43;95688.97;;;4.69;100.00
10014;BME280;45684;48.358;10.746;2022-11-20T05:02:11;95682.03;;;4.68;100.00
10014;BME280;45684;48.358;10.746;2022-11-20T05:04:39;95680.94;;;4.69;100.00
10014;BME280;45684;48.358;10.746;2022-11-20T05:07:07;95687.31;;;4.73;100.00
10014;BME280;45684;48.358;10.746;2022-11-20T05:09:34;95683.53;;;4.74;100.00
10014;BME280;45684;48.358;10.746;2022-11-20T05:12:03;95683.53;;;4.74;100.00
10014;BME280;45684;48.358;10.746;2022-11-20T05:14:32;95676.59;;;4.73;100.00
10014;BME280;45684;48.358;10.746;2022-11-20T05:17:00;95675.22;;;4.75;100.00
10014;BME280;45684;48.358;10.746;2022-11-20T05:19:28;95679.28;;;4.73;100.00
10014;BME280;45684;48.358;10.746;2022-11-20T05:21:55;95687.41;;;4.68;100.00
10014;BME280;45684;48.358;10.746;2022-11-20T05:24:23;95686.22;;;4.74;100.00
10014;BME280;45684;48.358;10.746;2022-11-20T05:26:51;95690.00;;;4.73;100.00
10014;BME280;45684;48.358;10.746;2022-11-20T05:29:18;95687.63;;;4.71;100.00
10014;BME280;45684;48.358;10.746;2022-11-20T05:31:48;95692.22;;;4.66;100.00
10014;BME280;45684;48.358;10.746;2022-11-20T05:34:16;95688.69;;;4.70;100.00
10014;BME280;45684;48.358;10.746;2022-11-20T05:36:43;95699.41;;;4.70;100.00
10014;BME280;45684;48.358;10.746;2022-11-20T05:39:11;95698.09;;;4.68;100.00
10014;BME280;45684;48.358;10.746;2022-11-20T05:41:39;95707.16;;;4.72;100.00
10014;BME280;45684;48.358;10.746;2022-11-20T05:44:07;95705.53;;;4.71;100.00
10014;BME280;45684;48.358;10.746;2022-11-20T05:46:34;95706.94;;;4.68;100.00
10014;BME280;45684;48.358;10.746;2022-11-20T05:49:03;95701.88;;;4.67;100.00
10014;BME280;45684;48.358;10.746;2022-11-20T05:51:31;95701.00;;;4.71;100.00
10014;BME280;45684;48.358;10.746;2022-11-20T05:53:59;95700.41;;;4.74;100.00
10014;BME280;45684;48.358;10.746;2022-11-20T05:56:27;95708.97;;;4.76;100.00
10014;BME280;45684;48.358;10.746;2022-11-20T05:58:55;95699.41;;;4.70;100.00
10014;BME280;45684;48.358;10.746;2022-11-20T06:01:25;95706.56;;;4.75;100.00
10014;BME280;45684;48.358;10.746;2022-11-20T06:03:53;95705.50;;;4.76;100.00
10014;BME280;45684;48.358;10.746;2022-11-20T06:06:23;95703.59;;;4.76;100.00
10014;BME280;45684;48.358;10.746;2022-11-20T06:08:51;95701.13;;;4.80;100.00
10014;BME280;45684;48.358;10.746;2022-11-20T06:11:19;95712.38;;;4.82;100.00
10014;BME280;45684;48.358;10.746;2022-11-20T06:13:48;95705.69;;;4.79;100.00
10014;BME280;45684;48.358;10.746;2022-11-20T06:16:17;95717.50;;;4.78;100.00
10014;BME280;45684;48.358;10.746;2022-11-20T06:18:46;95708.16;;;4.76;100.00
10014;BME280;45684;48.358;10.746;2022-11-20T06:21:15;95713.00;;;4.74;100.00
10014;BME280;45684;48.358;10.746;2022-11-20T06:23:45;95715.13;;;4.77;100.00
10014;BME280;45684;48.358;10.746;2022-11-20T06:26:15;95718.59;;;4.77;100.00
10014;BME280;45684;48.358;10.746;2022-11-20T06:28:43;95724.16;;;4.81;100.00
10014;BME280;45684;48.358;10.746;2022-11-20T06:31:12;95723.41;;;4.75;100.00
10014;BME280;45684;48.358;10.746;2022-11-20T06:33:41;95721.59;;;4.71;100.00
10014;BME280;45684;48.358;10.746;2022-11-20T06:36:10;95718.59;;;4.77;100.00
10014;BME280;45684;48.358;10.746;2022-11-20T06:38:39;95718.28;;;4.79;100.00
10014;BME280;45684;48.358;10.746;2022-11-20T06:41:11;95713.72;;;4.79;100.00
10014;BME280;45684;48.358;10.746;2022-11-20T06:43:39;95727.41;;;4.78;100.00
10014;BME280;45684;48.358;10.746;2022-11-20T06:46:09;95730.59;;;4.80;100.00
10014;BME280;45684;48.358;10.746;2022-11-20T06:48:37;95734.34;;;4.79;100.00
10014;BME280;45684;48.358;10.746;2022-11-20T06:51:05;95729.00;;;4.79;100.00
10014;BME280;45684;48.358;10.746;2022-11-20T06:53:34;95730.59;;;4.80;100.00
10014;BME280;45684;48.358;10.746;2022-11-20T06:56:02;95734.34;;;4.79;100.00
10014;BME280;45684;48.358;10.746;2022-11-20T06:58:33;95734.34;;;4.79;100.00
10014;BME280;45684;48.358;10.746;2022-11-20T07:01:03;95736.97;;;4.84;100.00
10014;BME280;45684;48.358;10.746;2022-11-20T07:03:32;95742.91;;;4.81;100.00
10014;BME280;45684;48.358;10.746;2022-11-20T07:06:00;95747.91;;;4.88;100.00
10014;BME280;45684;48.358;10.746;2022-11-20T07:08:29;95743.56;;;4.92;100.00
10014;BME280;45684;48.358;10.746;2022-11-20T07:10:58;95751.59;;;4.92;100.00
10014;BME280;45684;48.358;10.746;2022-11-20T07:13:26;95749.13;;;4.95;100.00
10014;BME280;45684;48.358;10.746;2022-11-20T07:15:59;95744.78;;;4.99;100.00
10014;BME280;45684;48.358;10.746;2022-11-20T07:18:27;95745.78;;;5.03;100.00
10014;BME280;45684;48.358;10.746;2022-11-20T07:20:55;95748.47;;;5.03;100.00
10014;BME280;45684;48.358;10.746;2022-11-20T07:23:23;95750.88;;;5.05;100.00
10014;BME280;45684;48.358;10.746;2022-11-20T07:25:51;95748.41;;;5.08;100.00
10014;BME280;45684;48.358;10.746;2022-11-20T07:28:18;95759.53;;;5.16;100.00
10014;BME280;45684;48.358;10.746;2022-11-20T07:30:49;95769.09;;;5.22;100.00
10014;BME280;45684;48.358;10.746;2022-11-20T07:33:19;95767.16;;;5.27;100.00
10014;BME280;45684;48.358;10.746;2022-11-20T07:35:47;95765.41;;;5.36;100.00
10014;BME280;45684;48.358;10.746;2022-11-20T07:38:15;95774.72;;;5.39;100.00
10014;BME280;45684;48.358;10.746;2022-11-20T07:40:43;95760.22;;;5.40;100.00
10014;BME280;45684;48.358;10.746;2022-11-20T07:43:10;95763.44;;;5.42;100.00
10014;BME280;45684;48.358;10.746;2022-11-20T07:45:38;95766.03;;;5.47;100.00
10014;BME280;45684;48.358;10.746;2022-11-20T07:48:06;95773.97;;;5.52;100.00
10014;BME280;45684;48.358;10.746;2022-11-20T07:50:35;95764.34;;;5.51;100.00
10014;BME280;45684;48.358;10.746;2022-11-20T07:53:03;95758.69;;;5.53;100.00
10014;BME280;45684;48.358;10.746;2022-11-20T07:55:32;95764.34;;;5.51;100.00
10014;BME280;45684;48.358;10.746;2022-11-20T07:57:59;95767.03;;;5.51;100.00
10014;BME280;45684;48.358;10.746;2022-11-20T08:00:27;95765.44;;;5.50;100.00
10014;BME280;45684;48.358;10.746;2022-11-20T08:02:55;95762.47;;;5.52;100.00
10014;BME280;45684;48.358;10.746;2022-11-20T08:05:23;95766.16;;;5.56;100.00
10014;BME280;45684;48.358;10.746;2022-11-20T08:07:52;95768.44;;;5.62;100.00
10014;BME280;45684;48.358;10.746;2022-11-20T08:10:20;95779.59;;;5.70;100.00
10014;BME280;45684;48.358;10.746;2022-11-20T08:12:48;95769.06;;;5.73;100.00
10014;BME280;45684;48.358;10.746;2022-11-20T08:15:35;95773.06;;;5.76;100.00
10014;BME280;45684;48.358;10.746;2022-11-20T08:18:05;95769.19;;;5.82;100.00
10014;BME280;45684;48.358;10.746;2022-11-20T08:20:53;95775.16;;;5.79;100.00
10014;BME280;45684;48.358;10.746;2022-11-20T08:23:22;95779.63;;;5.83;100.00
10014;BME280;45684;48.358;10.746;2022-11-20T08:25:50;95777.75;;;5.84;100.00
10014;BME280;45684;48.358;10.746;2022-11-20T08:28:18;95774.19;;;5.88;100.00
10014;BME280;45684;48.358;10.746;2022-11-20T08:30:48;95778.22;;;5.86;100.00
10014;BME280;45684;48.358;10.746;2022-11-20T08:33:17;95773.59;;;5.92;100.00
10014;BME280;45684;48.358;10.746;2022-11-20T08:35:45;95776.56;;;5.90;100.00
10014;BME280;45684;48.358;10.746;2022-11-20T08:38:13;95772.22;;;5.94;100.00
10014;BME280;45684;48.358;10.746;2022-11-20T08:40:42;95763.78;;;6.01;100.00
10014;BME280;45684;48.358;10.746;2022-11-20T08:43:31;95767.75;;;6.03;100.00
10014;BME280;45684;48.358;10.746;2022-11-20T08:46:00;95774.63;;;6.09;100.00
10014;BME280;45684;48.358;10.746;2022-11-20T08:48:27;95757.41;;;6.10;100.00
10014;BME280;45684;48.358;10.746;2022-11-20T08:50:57;95766.78;;;6.13;100.00
10014;BME280;45684;48.358;10.746;2022-11-20T08:53:26;95764.00;;;6.18;100.00
10014;BME280;45684;48.358;10.746;2022-11-20T08:55:56;95765.78;;;6.23;100.00
10014;BME280;45684;48.358;10.746;2022-11-20T08:58:24;95767.38;;;6.24;100.00
10014;BME280;45684;48.358;10.746;2022-11-20T09:00:52;95764.56;;;6.29;100.00
10014;BME280;45684;48.358;10.746;2022-11-20T09:03:20;95767.25;;;6.29;100.00
10014;BME280;45684;48.358;10.746;2022-11-20T09:05:48;95771.94;;;6.23;100.00
10014;BME280;45684;48.358;10.746;2022-11-20T09:08:16;95767.09;;;6.25;100.00
10014;BME280;45684;48.358;10.746;2022-11-20T09:10:44;95772.84;;;6.32;100.00
10014;BME280;45684;48.358;10.746;2022-11-20T09:13:14;95771.75;;;6.33;100.00
10014;BME280;45684;48.358;10.746;2022-11-20T09:15:42;95776.53;;;6.36;100.00
10014;BME280;45684;48.358;10.746;2022-11-20T09:18:09;95777.91;;;6.34;100.00
10014;BME280;45684;48.358;10.746;2022-11-20T09:20:37;95780.00;;;6.37;100.00
10014;BME280;45684;48.358;10.746;2022-11-20T09:23:05;95781.59;;;6.38;100.00
10014;BME280;45684;48.358;10.746;2022-11-20T09:25:33;95775.72;;;6.36;100.00
10014;BME280;45684;48.358;10.746;2022-11-20T09:28:01;95775.84;;;6.45;100.00
10014;BME280;45684;48.358;10.746;2022-11-20T09:30:30;95774.72;;;6.46;100.00
10014;BME280;45684;48.358;10.746;2022-11-20T09:32:58;95773.34;;;6.48;100.00
10014;BME280;45684;48.358;10.746;2022-11-20T09:35:26;95786.38;;;6.55;100.00
10014;BME280;45684;48.358;10.746;2022-11-20T09:37:53;95769.78;;;6.53;100.00
10014;BME280;45684;48.358;10.746;2022-11-20T09:40:23;95773.81;;;6.64;100.00
10014;BME280;45684;48.358;10.746;2022-11-20T09:42:55;95778.66;;;6.76;100.00
10014;BME280;45684;48.358;10.746;2022-11-20T09:45:37;95774.19;;;6.85;100.00
10014;BME280;45684;48.358;10.746;2022-11-20T09:48:20;95765.03;;;6.86;100.00
10014;BME280;45684;48.358;10.746;2022-11-20T09:50:56;95772.31;;;6.85;100.00
10014;BME280;45684;48.358;10.746;2022-11-20T09:53:32;95774.25;;;6.94;100.00
10014;BME280;45684;48.358;10.746;2022-11-20T09:56:04;95773.28;;;6.89;100.00
10014;BME280;45684;48.358;10.746;2022-11-20T09:58:36;95768.88;;;6.94;100.00
10014;BME280;45684;48.358;10.746;2022-11-20T10:01:11;95776.47;;;6.92;100.00
10014;BME280;45684;48.358;10.746;2022-11-20T10:03:54;95765.16;;;6.81;100.00
10014;BME280;45684;48.358;10.746;2022-11-20T10:06:29;95760.16;;;6.74;100.00
10014;BME280;45684;48.358;10.746;2022-11-20T10:09:07;95765.66;;;6.69;100.00
10014;BME280;45684;48.358;10.746;2022-11-20T10:11:48;95758.97;;;6.67;100.00
10014;BME280;45684;48.358;10.746;2022-11-20T10:14:24;95757.72;;;6.64;100.00
10014;BME280;45684;48.358;10.746;2022-11-20T10:17:01;95763.16;;;6.73;100.00
10014;BME280;45684;48.358;10.746;2022-11-20T10:19:52;95754.44;;;6.67;100.00
10014;BME280;45684;48.358;10.746;2022-11-20T10:22:34;95756.38;;;6.75;100.00
10014;BME280;45684;48.358;10.746;2022-11-20T10:25:13;95760.38;;;6.78;100.00
10014;BME280;45684;48.358;10.746;2022-11-20T10:28:07;95754.47;;;6.89;100.00
10014;BME280;45684;48.358;10.746;2022-11-20T10:30:40;95756.88;;;6.91;100.00
10014;BME280;45684;48.358;10.746;2022-11-20T10:33:15;95760.22;;;6.97;100.00
10014;BME280;45684;48.358;10.746;2022-11-20T10:35:49;95768.19;;;7.02;100.00
10014;BME280;45684;48.358;10.746;2022-11-20T10:38:21;95770.31;;;6.91;100.00
10014;BME280;45684;48.358;10.746;2022-11-20T10:40:54;95770.38;;;7.00;100.00
10014;BME280;45684;48.358;10.746;2022-11-20T10:43:44;95777.56;;;6.90;100.00
10014;BME280;45684;48.358;10.746;2022-11-20T10:46:15;95769.31;;;6.87;100.00
10014;BME280;45684;48.358;10.746;2022-11-20T10:48:46;95777.47;;;6.82;100.00
10014;BME280;45684;48.358;10.746;2022-11-20T10:51:21;95763.66;;;6.75;100.00
10014;BME280;45684;48.358;10.746;2022-11-20T10:53:58;95767.91;;;6.76;100.00
10014;BME280;45684;48.358;10.746;2022-11-20T10:56:34;95763.97;;;6.73;100.00
10014;BME280;45684;48.358;10.746;2022-11-20T10:59:33;95757.19;;;6.76;100.00
10014;BME280;45684;48.358;10.746;2022-11-20T11:02:15;95763.06;;;6.78;100.00
10014;BME280;45684;48.358;10.746;2022-11-20T11:04:46;95760.38;;;6.78;100.00
10014;BME280;45684;48.358;10.746;2022-11-20T11:07:17;95755.00;;;6.78;100.00
10014;BME280;45684;48.358;10.746;2022-11-20T11:09:48;95747.31;;;6.85;100.00
10014;BME280;45684;48.358;10.746;2022-11-20T11:12:16;95747.19;;;6.90;100.00
10014;BME280;45684;48.358;10.746;2022-11-20T11:14:46;95755.16;;;6.95;100.00
10014;BME280;45684;48.358;10.746;2022-11-20T11:17:23;95739.31;;;6.94;100.00
10014;BME280;45684;48.358;10.746;2022-11-20T11:19:59;95744.09;;;6.97;100.00
10014;BME280;45684;48.358;10.746;2022-11-20T11:22:29;95736.34;;;6.95;100.00
10014;BME280;45684;48.358;10.746;2022-11-20T11:24:58;95743.91;;;6.93;100.00
10014;BME280;45684;48.358;10.746;2022-11-20T11:27:25;95733.81;;;6.99;100.00
10014;BME280;45684;48.358;10.746;2022-11-20T11:30:12;95738.91;;;7.00;100.00
10014;BME280;45684;48.358;10.746;2022-11-20T11:32:40;95736.22;;;7.00;100.00
10014;BME280;45684;48.358;10.746;2022-11-20T11:35:21;95734.03;;;7.02;100.00
10014;BME280;45684;48.358;10.746;2022-11-20T11:37:51;95724.84;;;7.03;100.00
10014;BME280;45684;48.358;10.746;2022-11-20T11:40:21;95722.78;;;7.00;100.00
10014;BME280;45684;48.358;10.746;2022-11-20T11:42:55;95724.19;;;6.98;100.00
10014;BME280;45684;48.358;10.746;2022-11-20T11:45:24;95727.06;;;7.01;100.00
10014;BME280;45684;48.358;10.746;2022-11-20T11:47:52;95722.22;;;6.89;100.00
10014;BME280;45684;48.358;10.746;2022-11-20T11:50:28;95716.66;;;6.86;100.00
10014;BME280;45684;48.358;10.746;2022-11-20T11:53:04;95719.03;;;6.87;100.00
10014;BME280;45684;48.358;10.746;2022-11-20T11:55:38;95715.06;;;6.85;100.00
10014;BME280;45684;48.358;10.746;2022-11-20T11:58:32;95720.94;;;6.87;100.00
10014;BME280;45684;48.358;10.746;2022-11-20T12:01:04;95724.72;;;6.86;100.00
10014;BME280;45684;48.358;10.746;2022-11-20T12:03:38;95724.22;;;6.84;100.00
10014;BME280;45684;48.358;10.746;2022-11-20T12:06:12;95715.00;;;6.76;100.00
10014;BME280;45684;48.358;10.746;2022-11-20T12:08:45;95716.69;;;6.72;100.00
10014;BME280;45684;48.358;10.746;2022-11-20T12:11:18;95713.31;;;6.67;100.00
10014;BME280;45684;48.358;10.746;2022-11-20T12:13:52;95706.06;;;6.67;100.00
10014;BME280;45684;48.358;10.746;2022-11-20T12:16:21;95703.06;;;6.69;100.00
10014;BME280;45684;48.358;10.746;2022-11-20T12:18:50;95706.56;;;6.69;100.00
10014;BME280;45684;48.358;10.746;2022-11-20T12:21:28;95701.88;;;6.61;100.00
10014;BME280;45684;48.358;10.746;2022-11-20T12:24:10;95700.97;;;6.65;100.00
10014;BME280;45684;48.358;10.746;2022-11-20T12:26:52;95704.47;;;6.66;100.00
10014;BME280;45684;48.358;10.746;2022-11-20T12:29:32;95706.25;;;6.71;100.00
10014;BME280;45684;48.358;10.746;2022-11-20T12:32:22;95703.56;;;6.71;100.00
10014;BME280;45684;48.358;10.746;2022-11-20T12:35:05;95694.34;;;6.63;100.00
10014;BME280;45684;48.358;10.746;2022-11-20T12:37:45;95704.19;;;6.68;100.00
10014;BME280;45684;48.358;10.746;2022-11-20T12:40:25;95700.50;;;6.63;100.00
10014;BME280;45684;48.358;10.746;2022-11-20T12:43:01;95699.88;;;6.67;100.00
10014;BME280;45684;48.358;10.746;2022-11-20T12:46:07;95694.91;;;6.74;100.00
10014;BME280;45684;48.358;10.746;2022-11-20T12:48:41;95699.59;;;6.68;100.00
10014;BME280;45684;48.358;10.746;2022-11-20T12:51:25;95697.19;;;6.67;100.00
10014;BME280;45684;48.358;10.746;2022-11-20T12:54:11;95699.72;;;6.63;100.00
10014;BME280;45684;48.358;10.746;2022-11-20T12:56:50;95685.25;;;6.73;100.00
10014;BME280;45684;48.358;10.746;2022-11-20T12:59:45;95691.09;;;6.75;100.00
10014;BME280;45684;48.358;10.746;2022-11-20T13:02:24;95695.09;;;6.77;100.00
10014;BME280;45684;48.358;10.746;2022-11-20T13:05:17;95696.78;;;6.73;100.00
10014;BME280;45684;48.358;10.746;2022-11-20T13:07:47;95699.09;;;6.66;100.00
10014;BME280;45684;48.358;10.746;2022-11-20T13:10:21;95705.88;;;6.63;100.00
10014;BME280;45684;48.358;10.746;2022-11-20T13:12:56;95692.91;;;6.65;100.00